sensor_id;sensor_type;location;lat;lon;timestamp;temperature;humidity
46608;DHT22;32330;51.936;7.184;2022-07-30T00:01:12;17.90;1.00
46608;DHT22;32330;51.936;7.184;2022-07-30T00:03:38;17.80;1.00
46608;DHT22;32330;51.936;7.184;2022-07-30T00:06:03;17.80;1.00
46608;DHT22;32330;51.936;7.184;2022-07-30T00:08:29;17.80;1.00
46608;DHT22;32330;51.936;7.184;2022-07-30T00:10:55;17.70;1.00
46608;DHT22;32330;51.936;7.184;2022-07-30T00:13:20;17.60;1.00
46608;DHT22;32330;51.936;7.184;2022-07-30T00:15:46;17.60;1.00
46608;DHT22;32330;51.936;7.184;2022-07-30T00:18:11;17.60;1.00
46608;DHT22;32330;51.936;7.184;2022-07-30T00:20:37;17.60;1.00
46608;DHT22;32330;51.936;7.184;2022-07-30T00:23:05;17.50;1.00
46608;DHT22;32330;51.936;7.184;2022-07-30T00:25:31;17.50;1.00
46608;DHT22;32330;51.936;7.184;2022-07-30T00:27:57;17.40;1.00
46608;DHT22;32330;51.936;7.184;2022-07-30T00:30:23;17.40;1.00
46608;DHT22;32330;51.936;7.184;2022-07-30T00:32:49;17.40;1.00
46608;DHT22;32330;51.936;7.184;2022-07-30T00:35:15;17.30;1.00
46608;DHT22;32330;51.936;7.184;2022-07-30T00:37:40;17.30;1.00
46608;DHT22;32330;51.936;7.184;2022-07-30T00:40:07;17.20;1.00
46608;DHT22;32330;51.936;7.184;2022-07-30T00:42:38;17.20;1.00
46608;DHT22;32330;51.936;7.184;2022-07-30T00:45:05;17.20;1.00
46608;DHT22;32330;51.936;7.184;2022-07-30T00:47:31;17.20;1.00
46608;DHT22;32330;51.936;7.184;2022-07-30T00:49:57;17.10;1.00
46608;DHT22;32330;51.936;7.184;2022-07-30T00:52:22;17.10;1.00
46608;DHT22;32330;51.936;7.184;2022-07-30T00:54:48;17.10;1.00
46608;DHT22;32330;51.936;7.184;2022-07-30T00:57:13;17.00;1.00
46608;DHT22;32330;51.936;7.184;2022-07-30T00:59:39;17.00;1.00
46608;DHT22;32330;51.936;7.184;2022-07-30T01:02:05;16.90;4.00
46608;DHT22;32330;51.936;7.184;2022-07-30T01:04:30;16.90;1.00
46608;DHT22;32330;51.936;7.184;2022-07-30T01:06:56;16.90;1.00
46608;DHT22;32330;51.936;7.184;2022-07-30T01:09:21;16.80;3.50
46608;DHT22;32330;51.936;7.184;2022-07-30T01:11:47;16.80;2.30
46608;DHT22;32330;51.936;7.184;2022-07-30T01:14:13;16.80;4.20
46608;DHT22;32330;51.936;7.184;2022-07-30T01:16:40;16.70;1.00
46608;DHT22;32330;51.936;7.184;2022-07-30T01:19:12;16.70;1.00
46608;DHT22;32330;51.936;7.184;2022-07-30T01:22:21;16.70;1.00
46608;DHT22;32330;51.936;7.184;2022-07-30T01:27:52;16.60;11.00
46608;DHT22;32330;51.936;7.184;2022-07-30T01:30:23;16.50;11.90
46608;DHT22;32330;51.936;7.184;2022-07-30T01:32:50;16.50;3.70
46608;DHT22;32330;51.936;7.184;2022-07-30T01:35:19;16.50;3.90
46608;DHT22;32330;51.936;7.184;2022-07-30T01:37:46;16.50;15.30
46608;DHT22;32330;51.936;7.184;2022-07-30T01:40:12;16.40;14.70
46608;DHT22;32330;51.936;7.184;2022-07-30T01:42:39;16.40;12.50
46608;DHT22;32330;51.936;7.184;2022-07-30T01:45:06;16.30;16.70
46608;DHT22;32330;51.936;7.184;2022-07-30T01:47:34;16.30;16.40
46608;DHT22;32330;51.936;7.184;2022-07-30T01:50:03;16.30;21.40
46608;DHT22;32330;51.936;7.184;2022-07-30T01:52:31;16.20;23.10
46608;DHT22;32330;51.936;7.184;2022-07-30T01:54:59;16.20;21.00
46608;DHT22;32330;51.936;7.184;2022-07-30T01:57:26;16.10;24.70
46608;DHT22;32330;51.936;7.184;2022-07-30T01:59:58;16.00;29.40
46608;DHT22;32330;51.936;7.184;2022-07-30T02:02:25;16.00;30.00
46608;DHT22;32330;51.936;7.184;2022-07-30T02:04:51;15.90;32.00
46608;DHT22;32330;51.936;7.184;2022-07-30T02:07:23;15.90;30.20
46608;DHT22;32330;51.936;7.184;2022-07-30T02:10:04;15.90;28.60
46608;DHT22;32330;51.936;7.184;2022-07-30T02:12:31;15.80;34.50
46608;DHT22;32330;51.936;7.184;2022-07-30T02:18:15;15.80;34.70
46608;DHT22;32330;51.936;7.184;2022-07-30T02:20:50;15.80;32.70
46608;DHT22;32330;51.936;7.184;2022-07-30T02:23:18;15.80;34.30
46608;DHT22;32330;51.936;7.184;2022-07-30T02:25:48;15.70;37.90
46608;DHT22;32330;51.936;7.184;2022-07-30T02:28:17;15.70;38.20
46608;DHT22;32330;51.936;7.184;2022-07-30T02:30:47;15.70;33.30
46608;DHT22;32330;51.936;7.184;2022-07-30T02:33:16;15.70;43.60
46608;DHT22;32330;51.936;7.184;2022-07-30T02:35:43;15.60;42.40
46608;DHT22;32330;51.936;7.184;2022-07-30T02:38:11;15.60;42.90
46608;DHT22;32330;51.936;7.184;2022-07-30T02:40:40;15.60;40.10
46608;DHT22;32330;51.936;7.184;2022-07-30T02:43:06;15.50;37.00
46608;DHT22;32330;51.936;7.184;2022-07-30T02:45:33;15.50;39.60
46608;DHT22;32330;51.936;7.184;2022-07-30T02:48:04;15.50;37.40
46608;DHT22;32330;51.936;7.184;2022-07-30T02:50:33;15.50;44.60
46608;DHT22;32330;51.936;7.184;2022-07-30T02:53:01;15.40;46.00
46608;DHT22;32330;51.936;7.184;2022-07-30T02:55:30;15.40;42.50
46608;DHT22;32330;51.936;7.184;2022-07-30T02:57:57;15.40;41.40
46608;DHT22;32330;51.936;7.184;2022-07-30T03:00:24;15.30;39.80
46608;DHT22;32330;51.936;7.184;2022-07-30T03:02:53;15.30;41.60
46608;DHT22;32330;51.936;7.184;2022-07-30T03:05:20;15.30;42.10
46608;DHT22;32330;51.936;7.184;2022-07-30T03:07:46;15.30;37.80
46608;DHT22;32330;51.936;7.184;2022-07-30T03:10:13;15.20;39.40
46608;DHT22;32330;51.936;7.184;2022-07-30T03:12:42;15.20;42.60
46608;DHT22;32330;51.936;7.184;2022-07-30T03:15:09;15.20;50.10
46608;DHT22;32330;51.936;7.184;2022-07-30T03:17:37;15.20;50.50
46608;DHT22;32330;51.936;7.184;2022-07-30T03:20:08;15.10;46.60
46608;DHT22;32330;51.936;7.184;2022-07-30T03:22:39;15.10;45.10
46608;DHT22;32330;51.936;7.184;2022-07-30T03:25:05;15.10;42.50
46608;DHT22;32330;51.936;7.184;2022-07-30T03:27:32;15.10;48.40
46608;DHT22;32330;51.936;7.184;2022-07-30T03:30:00;15.10;53.00
46608;DHT22;32330;51.936;7.184;2022-07-30T03:32:27;15.10;51.50
46608;DHT22;32330;51.936;7.184;2022-07-30T03:34:53;15.10;52.30
46608;DHT22;32330;51.936;7.184;2022-07-30T03:37:19;15.10;54.00
46608;DHT22;32330;51.936;7.184;2022-07-30T03:39:45;15.00;59.50
46608;DHT22;32330;51.936;7.184;2022-07-30T03:42:12;15.10;61.90
46608;DHT22;32330;51.936;7.184;2022-07-30T03:44:38;15.10;58.70
46608;DHT22;32330;51.936;7.184;2022-07-30T03:47:05;15.10;60.40
46608;DHT22;32330;51.936;7.184;2022-07-30T03:49:32;15.10;61.70
46608;DHT22;32330;51.936;7.184;2022-07-30T03:51:59;15.10;62.90
46608;DHT22;32330;51.936;7.184;2022-07-30T03:54:25;15.10;59.70
46608;DHT22;32330;51.936;7.184;2022-07-30T03:56:51;15.10;65.20
46608;DHT22;32330;51.936;7.184;2022-07-30T03:59:17;15.00;69.00
46608;DHT22;32330;51.936;7.184;2022-07-30T04:01:43;15.10;67.40
46608;DHT22;32330;51.936;7.184;2022-07-30T04:04:09;15.00;69.10
46608;DHT22;32330;51.936;7.184;2022-07-30T04:06:36;15.00;70.30
46608;DHT22;32330;51.936;7.184;2022-07-30T04:09:09;15.10;69.10
46608;DHT22;32330;51.936;7.184;2022-07-30T04:11:35;15.00;65.80
46608;DHT22;32330;51.936;7.184;2022-07-30T04:14:01;15.00;66.60
46608;DHT22;32330;51.936;7.184;2022-07-30T04:16:43;15.00;64.80
46608;DHT22;32330;51.936;7.184;2022-07-30T04:19:38;15.00;67.70
46608;DHT22;32330;51.936;7.184;2022-07-30T04:22:04;15.00;70.90
46608;DHT22;32330;51.936;7.184;2022-07-30T04:24:32;15.10;70.50
46608;DHT22;32330;51.936;7.184;2022-07-30T04:26:59;15.10;72.20
46608;DHT22;32330;51.936;7.184;2022-07-30T04:29:26;15.10;72.10
46608;DHT22;32330;51.936;7.184;2022-07-30T04:31:53;15.10;73.40
46608;DHT22;32330;51.936;7.184;2022-07-30T04:34:19;15.10;75.80
46608;DHT22;32330;51.936;7.184;2022-07-30T04:36:44;15.10;74.80
46608;DHT22;32330;51.936;7.184;2022-07-30T04:39:10;15.20;76.50
46608;DHT22;32330;51.936;7.184;2022-07-30T04:41:37;15.20;79.60
46608;DHT22;32330;51.936;7.184;2022-07-30T04:44:03;15.20;82.90
46608;DHT22;32330;51.936;7.184;2022-07-30T04:46:28;15.20;89.60
46608;DHT22;32330;51.936;7.184;2022-07-30T04:48:54;15.20;93.10
46608;DHT22;32330;51.936;7.184;2022-07-30T04:51:26;15.10;95.40
46608;DHT22;32330;51.936;7.184;2022-07-30T04:53:53;15.20;95.80
46608;DHT22;32330;51.936;7.184;2022-07-30T04:56:20;15.10;96.10
46608;DHT22;32330;51.936;7.184;2022-07-30T04:58:47;15.20;96.60
46608;DHT22;32330;51.936;7.184;2022-07-30T05:01:22;15.20;97.30
46608;DHT22;32330;51.936;7.184;2022-07-30T05:03:50;15.20;97.30
46608;DHT22;32330;51.936;7.184;2022-07-30T05:06:17;15.10;98.60
46608;DHT22;32330;51.936;7.184;2022-07-30T05:08:43;15.00;99.00
46608;DHT22;32330;51.936;7.184;2022-07-30T05:11:13;15.00;99.90
46608;DHT22;32330;51.936;7.184;2022-07-30T05:13:43;15.20;99.90
46608;DHT22;32330;51.936;7.184;2022-07-30T05:16:09;15.20;99.90
46608;DHT22;32330;51.936;7.184;2022-07-30T05:18:35;15.20;99.90
46608;DHT22;32330;51.936;7.184;2022-07-30T05:21:01;15.30;99.90
46608;DHT22;32330;51.936;7.184;2022-07-30T05:23:27;15.30;99.90
46608;DHT22;32330;51.936;7.184;2022-07-30T05:25:52;15.40;99.90
46608;DHT22;32330;51.936;7.184;2022-07-30T05:28:18;15.50;99.90
46608;DHT22;32330;51.936;7.184;2022-07-30T05:30:43;15.50;99.90
46608;DHT22;32330;51.936;7.184;2022-07-30T05:33:09;15.50;99.90
46608;DHT22;32330;51.936;7.184;2022-07-30T05:35:34;15.60;99.90
46608;DHT22;32330;51.936;7.184;2022-07-30T05:38:00;15.60;99.90
46608;DHT22;32330;51.936;7.184;2022-07-30T05:40:26;15.60;99.90
46608;DHT22;32330;51.936;7.184;2022-07-30T05:42:51;15.70;99.90
46608;DHT22;32330;51.936;7.184;2022-07-30T05:45:17;15.80;99.90
46608;DHT22;32330;51.936;7.184;2022-07-30T05:47:42;15.80;99.90
46608;DHT22;32330;51.936;7.184;2022-07-30T05:50:08;15.90;99.90
46608;DHT22;32330;51.936;7.184;2022-07-30T05:52:34;16.00;99.90
46608;DHT22;32330;51.936;7.184;2022-07-30T05:54:59;16.00;99.90
46608;DHT22;32330;51.936;7.184;2022-07-30T05:57:25;16.00;99.90
46608;DHT22;32330;51.936;7.184;2022-07-30T05:59:50;16.00;99.90
46608;DHT22;32330;51.936;7.184;2022-07-30T06:02:16;16.00;99.90
46608;DHT22;32330;51.936;7.184;2022-07-30T06:04:41;16.20;99.90
46608;DHT22;32330;51.936;7.184;2022-07-30T06:07:07;16.20;99.90
46608;DHT22;32330;51.936;7.184;2022-07-30T06:09:32;16.30;99.90
46608;DHT22;32330;51.936;7.184;2022-07-30T06:11:58;16.30;99.90
46608;DHT22;32330;51.936;7.184;2022-07-30T06:14:24;16.40;99.90
46608;DHT22;32330;51.936;7.184;2022-07-30T06:16:49;16.50;99.90
46608;DHT22;32330;51.936;7.184;2022-07-30T06:19:15;16.50;99.90
46608;DHT22;32330;51.936;7.184;2022-07-30T06:21:40;16.60;99.90
46608;DHT22;32330;51.936;7.184;2022-07-30T06:24:06;16.50;99.90
46608;DHT22;32330;51.936;7.184;2022-07-30T06:26:32;16.60;99.90
46608;DHT22;32330;51.936;7.184;2022-07-30T06:28:57;16.70;99.90
46608;DHT22;32330;51.936;7.184;2022-07-30T06:31:23;16.70;99.90
46608;DHT22;32330;51.936;7.184;2022-07-30T06:33:49;16.80;99.90
46608;DHT22;32330;51.936;7.184;2022-07-30T06:36:14;16.90;99.90
46608;DHT22;32330;51.936;7.184;2022-07-30T06:38:40;16.90;99.90
46608;DHT22;32330;51.936;7.184;2022-07-30T06:41:06;16.90;99.90
46608;DHT22;32330;51.936;7.184;2022-07-30T06:43:31;17.00;99.90
46608;DHT22;32330;51.936;7.184;2022-07-30T06:45:57;17.10;99.90
46608;DHT22;32330;51.936;7.184;2022-07-30T06:48:23;17.10;99.50
46608;DHT22;32330;51.936;7.184;2022-07-30T06:50:48;17.20;99.30
46608;DHT22;32330;51.936;7.184;2022-07-30T06:53:14;17.30;99.00
46608;DHT22;32330;51.936;7.184;2022-07-30T06:55:39;17.40;98.90
46608;DHT22;32330;51.936;7.184;2022-07-30T06:58:05;17.40;97.40
46608;DHT22;32330;51.936;7.184;2022-07-30T07:00:31;17.40;97.00
46608;DHT22;32330;51.936;7.184;2022-07-30T07:02:56;17.50;98.00
46608;DHT22;32330;51.936;7.184;2022-07-30T07:05:22;17.60;96.90
46608;DHT22;32330;51.936;7.184;2022-07-30T07:07:48;17.60;96.30
46608;DHT22;32330;51.936;7.184;2022-07-30T07:10:13;17.70;95.80
46608;DHT22;32330;51.936;7.184;2022-07-30T07:12:39;17.70;95.20
46608;DHT22;32330;51.936;7.184;2022-07-30T07:15:05;17.80;96.10
46608;DHT22;32330;51.936;7.184;2022-07-30T07:17:30;17.80;95.50
46608;DHT22;32330;51.936;7.184;2022-07-30T07:19:56;17.90;95.70
46608;DHT22;32330;51.936;7.184;2022-07-30T07:22:22;17.90;95.50
46608;DHT22;32330;51.936;7.184;2022-07-30T07:24:47;17.90;95.40
46608;DHT22;32330;51.936;7.184;2022-07-30T07:27:13;18.00;95.60
46608;DHT22;32330;51.936;7.184;2022-07-30T07:29:40;18.00;96.00
46608;DHT22;32330;51.936;7.184;2022-07-30T07:32:06;18.00;95.30
46608;DHT22;32330;51.936;7.184;2022-07-30T07:34:31;18.10;95.60
46608;DHT22;32330;51.936;7.184;2022-07-30T07:36:57;18.20;95.50
46608;DHT22;32330;51.936;7.184;2022-07-30T07:39:22;18.30;94.80
46608;DHT22;32330;51.936;7.184;2022-07-30T07:41:48;18.40;94.60
46608;DHT22;32330;51.936;7.184;2022-07-30T07:44:13;18.40;94.40
46608;DHT22;32330;51.936;7.184;2022-07-30T07:46:39;18.40;94.40
46608;DHT22;32330;51.936;7.184;2022-07-30T07:49:05;18.50;93.20
46608;DHT22;32330;51.936;7.184;2022-07-30T07:51:30;18.50;92.90
46608;DHT22;32330;51.936;7.184;2022-07-30T07:53:56;18.50;91.90
46608;DHT22;32330;51.936;7.184;2022-07-30T07:56:21;18.60;88.60
46608;DHT22;32330;51.936;7.184;2022-07-30T07:58:47;18.70;89.40
46608;DHT22;32330;51.936;7.184;2022-07-30T08:01:13;18.90;88.70
46608;DHT22;32330;51.936;7.184;2022-07-30T08:03:38;19.10;85.20
46608;DHT22;32330;51.936;7.184;2022-07-30T08:06:04;19.20;81.20
46608;DHT22;32330;51.936;7.184;2022-07-30T08:08:29;19.20;78.20
46608;DHT22;32330;51.936;7.184;2022-07-30T08:10:55;19.20;76.90
46608;DHT22;32330;51.936;7.184;2022-07-30T08:13:21;19.40;83.90
46608;DHT22;32330;51.936;7.184;2022-07-30T08:15:48;19.50;80.30
46608;DHT22;32330;51.936;7.184;2022-07-30T08:18:14;19.40;77.40
46608;DHT22;32330;51.936;7.184;2022-07-30T08:20:39;19.60;73.70
46608;DHT22;32330;51.936;7.184;2022-07-30T08:23:05;19.70;68.20
46608;DHT22;32330;51.936;7.184;2022-07-30T08:25:31;19.80;65.40
46608;DHT22;32330;51.936;7.184;2022-07-30T08:27:57;20.00;61.20
46608;DHT22;32330;51.936;7.184;2022-07-30T08:30:25;20.30;50.40
46608;DHT22;32330;51.936;7.184;2022-07-30T08:32:50;20.30;53.10
46608;DHT22;32330;51.936;7.184;2022-07-30T08:35:16;20.60;44.10
46608;DHT22;32330;51.936;7.184;2022-07-30T08:37:41;20.50;35.20
46608;DHT22;32330;51.936;7.184;2022-07-30T08:40:07;20.50;41.10
46608;DHT22;32330;51.936;7.184;2022-07-30T08:42:34;20.60;41.90
46608;DHT22;32330;51.936;7.184;2022-07-30T08:45:00;20.70;35.20
46608;DHT22;32330;51.936;7.184;2022-07-30T08:47:33;20.70;26.50
46608;DHT22;32330;51.936;7.184;2022-07-30T08:50:00;21.00;26.60
46608;DHT22;32330;51.936;7.184;2022-07-30T08:52:31;21.00;10.60
46608;DHT22;32330;51.936;7.184;2022-07-30T08:54:58;21.20;7.70
46608;DHT22;32330;51.936;7.184;2022-07-30T08:57:25;21.50;1.00
46608;DHT22;32330;51.936;7.184;2022-07-30T08:59:52;21.60;1.00
46608;DHT22;32330;51.936;7.184;2022-07-30T09:02:18;21.60;1.00
46608;DHT22;32330;51.936;7.184;2022-07-30T09:04:44;21.70;1.00
46608;DHT22;32330;51.936;7.184;2022-07-30T09:07:09;21.70;1.00
46608;DHT22;32330;51.936;7.184;2022-07-30T09:09:35;21.90;1.00
46608;DHT22;32330;51.936;7.184;2022-07-30T09:12:00;22.00;99.90
46608;DHT22;32330;51.936;7.184;2022-07-30T09:14:26;22.10;99.90
46608;DHT22;32330;51.936;7.184;2022-07-30T09:16:56;22.30;99.90
46608;DHT22;32330;51.936;7.184;2022-07-30T09:19:24;22.40;99.90
46608;DHT22;32330;51.936;7.184;2022-07-30T09:21:58;22.50;99.90
46608;DHT22;32330;51.936;7.184;2022-07-30T09:24:24;22.80;99.90
46608;DHT22;32330;51.936;7.184;2022-07-30T09:26:55;22.90;99.90
46608;DHT22;32330;51.936;7.184;2022-07-30T09:29:22;23.00;18.90
46608;DHT22;32330;51.936;7.184;2022-07-30T09:32:07;23.20;99.90
46608;DHT22;32330;51.936;7.184;2022-07-30T09:34:34;23.30;99.90
46608;DHT22;32330;51.936;7.184;2022-07-30T09:37:15;23.40;99.90
46608;DHT22;32330;51.936;7.184;2022-07-30T09:39:42;23.60;99.90
46608;DHT22;32330;51.936;7.184;2022-07-30T09:42:25;23.70;99.90
46608;DHT22;32330;51.936;7.184;2022-07-30T09:45:05;23.70;99.90
46608;DHT22;32330;51.936;7.184;2022-07-30T09:47:33;23.60;99.90
46608;DHT22;32330;51.936;7.184;2022-07-30T09:50:10;23.90;28.30
46608;DHT22;32330;51.936;7.184;2022-07-30T09:52:38;24.00;99.90
46608;DHT22;32330;51.936;7.184;2022-07-30T09:55:04;24.20;99.90
46608;DHT22;32330;51.936;7.184;2022-07-30T09:57:30;24.20;44.10
46608;DHT22;32330;51.936;7.184;2022-07-30T09:59:57;24.40;1.00
46608;DHT22;32330;51.936;7.184;2022-07-30T10:02:32;24.60;99.90
46608;DHT22;32330;51.936;7.184;2022-07-30T10:05:12;24.60;1.00
46608;DHT22;32330;51.936;7.184;2022-07-30T10:07:37;24.90;1.00
46608;DHT22;32330;51.936;7.184;2022-07-30T10:10:03;25.10;99.90
46608;DHT22;32330;51.936;7.184;2022-07-30T10:12:31;25.10;99.90
46608;DHT22;32330;51.936;7.184;2022-07-30T10:14:59;25.40;99.90
46608;DHT22;32330;51.936;7.184;2022-07-30T10:17:26;24.80;87.40
46608;DHT22;32330;51.936;7.184;2022-07-30T10:19:52;25.10;81.50
46608;DHT22;32330;51.936;7.184;2022-07-30T10:22:18;25.10;99.90
46608;DHT22;32330;51.936;7.184;2022-07-30T10:24:44;25.20;99.90
46608;DHT22;32330;51.936;7.184;2022-07-30T10:27:10;25.60;99.90
46608;DHT22;32330;51.936;7.184;2022-07-30T10:29:36;25.10;1.00
46608;DHT22;32330;51.936;7.184;2022-07-30T10:32:03;25.40;1.00
46608;DHT22;32330;51.936;7.184;2022-07-30T10:34:29;25.70;99.90
46608;DHT22;32330;51.936;7.184;2022-07-30T10:37:02;26.10;99.90
46608;DHT22;32330;51.936;7.184;2022-07-30T10:39:31;25.90;99.90
46608;DHT22;32330;51.936;7.184;2022-07-30T10:47:27;26.20;99.90
46608;DHT22;32330;51.936;7.184;2022-07-30T10:50:10;26.40;99.90
46608;DHT22;32330;51.936;7.184;2022-07-30T10:52:51;26.50;99.90
46608;DHT22;32330;51.936;7.184;2022-07-30T10:55:28;26.50;99.90
46608;DHT22;32330;51.936;7.184;2022-07-30T11:00:27;26.30;47.30
46608;DHT22;32330;51.936;7.184;2022-07-30T11:03:13;25.80;99.90
46608;DHT22;32330;51.936;7.184;2022-07-30T11:05:39;25.80;99.90
46608;DHT22;32330;51.936;7.184;2022-07-30T11:08:31;26.40;99.90
46608;DHT22;32330;51.936;7.184;2022-07-30T11:10:58;26.50;99.90
46608;DHT22;32330;51.936;7.184;2022-07-30T11:13:58;26.80;99.90
46608;DHT22;32330;51.936;7.184;2022-07-30T11:19:13;27.20;99.90
46608;DHT22;32330;51.936;7.184;2022-07-30T11:21:43;27.50;99.90
46608;DHT22;32330;51.936;7.184;2022-07-30T11:27:07;27.60;1.00
46608;DHT22;32330;51.936;7.184;2022-07-30T11:29:37;27.30;1.00
46608;DHT22;32330;51.936;7.184;2022-07-30T11:32:23;27.40;99.90
46608;DHT22;32330;51.936;7.184;2022-07-30T11:34:49;27.50;1.00
46608;DHT22;32330;51.936;7.184;2022-07-30T11:37:15;27.80;99.90
46608;DHT22;32330;51.936;7.184;2022-07-30T11:42:30;27.90;1.00
46608;DHT22;32330;51.936;7.184;2022-07-30T11:45:28;28.20;99.90
46608;DHT22;32330;51.936;7.184;2022-07-30T11:47:56;28.20;99.90
46608;DHT22;32330;51.936;7.184;2022-07-30T11:50:25;28.00;99.90
46608;DHT22;32330;51.936;7.184;2022-07-30T11:52:52;28.30;99.90
46608;DHT22;32330;51.936;7.184;2022-07-30T11:55:51;28.20;99.90
46608;DHT22;32330;51.936;7.184;2022-07-30T11:58:31;28.30;99.90
46608;DHT22;32330;51.936;7.184;2022-07-30T12:00:59;28.60;99.90
46608;DHT22;32330;51.936;7.184;2022-07-30T12:03:26;28.20;99.90
46608;DHT22;32330;51.936;7.184;2022-07-30T12:05:53;28.40;99.90
46608;DHT22;32330;51.936;7.184;2022-07-30T12:08:20;28.40;99.90
46608;DHT22;32330;51.936;7.184;2022-07-30T12:10:58;28.30;99.90
46608;DHT22;32330;51.936;7.184;2022-07-30T12:13:24;28.10;99.90
46608;DHT22;32330;51.936;7.184;2022-07-30T12:15:50;27.80;99.90
46608;DHT22;32330;51.936;7.184;2022-07-30T12:18:27;28.10;99.90
46608;DHT22;32330;51.936;7.184;2022-07-30T12:20:55;28.30;99.90
46608;DHT22;32330;51.936;7.184;2022-07-30T12:23:21;28.30;99.90
46608;DHT22;32330;51.936;7.184;2022-07-30T12:25:47;28.40;99.90
46608;DHT22;32330;51.936;7.184;2022-07-30T12:28:26;28.60;99.90
46608;DHT22;32330;51.936;7.184;2022-07-30T12:30:53;28.80;99.90
46608;DHT22;32330;51.936;7.184;2022-07-30T12:33:19;28.80;99.90
46608;DHT22;32330;51.936;7.184;2022-07-30T12:35:56;28.80;99.90
46608;DHT22;32330;51.936;7.184;2022-07-30T12:38:23;28.50;99.90
46608;DHT22;32330;51.936;7.184;2022-07-30T12:41:03;28.50;99.90
46608;DHT22;32330;51.936;7.184;2022-07-30T12:43:42;28.20;99.90
46608;DHT22;32330;51.936;7.184;2022-07-30T12:46:08;27.80;99.90
46608;DHT22;32330;51.936;7.184;2022-07-30T12:48:34;28.10;99.90
46608;DHT22;32330;51.936;7.184;2022-07-30T12:51:05;28.50;99.90
46608;DHT22;32330;51.936;7.184;2022-07-30T12:53:30;28.50;99.90
46608;DHT22;32330;51.936;7.184;2022-07-30T12:56:09;28.80;99.90
46608;DHT22;32330;51.936;7.184;2022-07-30T12:58:36;28.70;99.90
46608;DHT22;32330;51.936;7.184;2022-07-30T13:01:02;28.90;99.90
46608;DHT22;32330;51.936;7.184;2022-07-30T13:03:28;28.70;99.90
46608;DHT22;32330;51.936;7.184;2022-07-30T13:06:14;28.70;99.90
46608;DHT22;32330;51.936;7.184;2022-07-30T13:11:14;28.80;99.90
46608;DHT22;32330;51.936;7.184;2022-07-30T13:13:39;28.50;99.90
46608;DHT22;32330;51.936;7.184;2022-07-30T13:16:05;27.90;99.90
46608;DHT22;32330;51.936;7.184;2022-07-30T13:18:35;28.20;99.90
46608;DHT22;32330;51.936;7.184;2022-07-30T13:21:02;28.40;99.90
46608;DHT22;32330;51.936;7.184;2022-07-30T13:23:29;28.50;99.90
46608;DHT22;32330;51.936;7.184;2022-07-30T13:25:55;28.70;99.90
46608;DHT22;32330;51.936;7.184;2022-07-30T13:28:21;28.50;97.90
46608;DHT22;32330;51.936;7.184;2022-07-30T13:30:47;28.40;91.10
46608;DHT22;32330;51.936;7.184;2022-07-30T13:33:13;28.50;99.10
46608;DHT22;32330;51.936;7.184;2022-07-30T13:35:39;28.40;99.90
46608;DHT22;32330;51.936;7.184;2022-07-30T13:38:05;28.20;98.00
46608;DHT22;32330;51.936;7.184;2022-07-30T13:40:32;28.40;98.60
46608;DHT22;32330;51.936;7.184;2022-07-30T13:42:58;28.30;97.90
46608;DHT22;32330;51.936;7.184;2022-07-30T13:45:24;27.90;96.40
46608;DHT22;32330;51.936;7.184;2022-07-30T13:47:50;28.10;99.90
46608;DHT22;32330;51.936;7.184;2022-07-30T13:50:15;28.10;95.80
46608;DHT22;32330;51.936;7.184;2022-07-30T13:52:41;27.80;94.60
46608;DHT22;32330;51.936;7.184;2022-07-30T13:55:07;27.90;92.40
46608;DHT22;32330;51.936;7.184;2022-07-30T13:57:32;28.10;93.80
46608;DHT22;32330;51.936;7.184;2022-07-30T13:59:58;28.10;92.50
46608;DHT22;32330;51.936;7.184;2022-07-30T14:02:24;28.30;90.40
46608;DHT22;32330;51.936;7.184;2022-07-30T14:04:49;28.30;92.30
46608;DHT22;32330;51.936;7.184;2022-07-30T14:07:15;28.30;87.00
46608;DHT22;32330;51.936;7.184;2022-07-30T14:09:40;28.20;87.70
46608;DHT22;32330;51.936;7.184;2022-07-30T14:12:06;28.30;75.90
46608;DHT22;32330;51.936;7.184;2022-07-30T14:14:32;28.40;76.20
46608;DHT22;32330;51.936;7.184;2022-07-30T14:16:58;28.30;64.90
46608;DHT22;32330;51.936;7.184;2022-07-30T14:19:23;28.10;73.60
46608;DHT22;32330;51.936;7.184;2022-07-30T14:21:49;28.20;66.40
46608;DHT22;32330;51.936;7.184;2022-07-30T14:24:14;28.30;73.10
46608;DHT22;32330;51.936;7.184;2022-07-30T14:26:43;28.00;74.50
46608;DHT22;32330;51.936;7.184;2022-07-30T14:29:09;27.90;74.90
46608;DHT22;32330;51.936;7.184;2022-07-30T14:31:35;28.20;78.30
46608;DHT22;32330;51.936;7.184;2022-07-30T14:34:02;28.20;75.10
46608;DHT22;32330;51.936;7.184;2022-07-30T14:36:28;28.20;67.50
46608;DHT22;32330;51.936;7.184;2022-07-30T14:38:58;28.40;74.70
46608;DHT22;32330;51.936;7.184;2022-07-30T14:41:25;28.30;62.10
46608;DHT22;32330;51.936;7.184;2022-07-30T14:43:51;28.30;69.30
46608;DHT22;32330;51.936;7.184;2022-07-30T14:46:17;28.60;69.80
46608;DHT22;32330;51.936;7.184;2022-07-30T14:48:42;28.70;64.60
46608;DHT22;32330;51.936;7.184;2022-07-30T14:51:08;28.80;75.10
46608;DHT22;32330;51.936;7.184;2022-07-30T14:53:34;29.20;86.10
46608;DHT22;32330;51.936;7.184;2022-07-30T14:55:59;28.90;62.70
46608;DHT22;32330;51.936;7.184;2022-07-30T14:58:25;28.60;51.10
46608;DHT22;32330;51.936;7.184;2022-07-30T15:00:51;28.60;59.80
46608;DHT22;32330;51.936;7.184;2022-07-30T15:03:17;28.80;59.50
46608;DHT22;32330;51.936;7.184;2022-07-30T15:05:42;28.80;51.90
46608;DHT22;32330;51.936;7.184;2022-07-30T15:08:08;28.60;47.60
46608;DHT22;32330;51.936;7.184;2022-07-30T15:10:33;29.00;53.10
46608;DHT22;32330;51.936;7.184;2022-07-30T15:12:59;28.60;30.50
46608;DHT22;32330;51.936;7.184;2022-07-30T15:15:25;28.50;31.30
46608;DHT22;32330;51.936;7.184;2022-07-30T15:17:50;28.50;27.70
46608;DHT22;32330;51.936;7.184;2022-07-30T15:20:16;28.20;22.00
46608;DHT22;32330;51.936;7.184;2022-07-30T15:22:42;28.50;22.60
46608;DHT22;32330;51.936;7.184;2022-07-30T15:25:07;28.60;21.00
46608;DHT22;32330;51.936;7.184;2022-07-30T15:27:33;29.00;29.20
46608;DHT22;32330;51.936;7.184;2022-07-30T15:29:59;28.90;13.50
46608;DHT22;32330;51.936;7.184;2022-07-30T15:32:25;28.80;20.20
46608;DHT22;32330;51.936;7.184;2022-07-30T15:34:51;28.80;15.10
46608;DHT22;32330;51.936;7.184;2022-07-30T15:37:16;28.80;14.30
46608;DHT22;32330;51.936;7.184;2022-07-30T15:39:42;29.00;11.40
46608;DHT22;32330;51.936;7.184;2022-07-30T15:42:08;28.90;14.20
46608;DHT22;32330;51.936;7.184;2022-07-30T15:44:33;28.50;5.60
46608;DHT22;32330;51.936;7.184;2022-07-30T15:46:59;28.40;2.00
46608;DHT22;32330;51.936;7.184;2022-07-30T15:49:25;28.30;2.30
46608;DHT22;32330;51.936;7.184;2022-07-30T15:51:52;28.30;5.40
46608;DHT22;32330;51.936;7.184;2022-07-30T15:54:19;28.50;5.90
46608;DHT22;32330;51.936;7.184;2022-07-30T15:56:47;28.80;5.20
46608;DHT22;32330;51.936;7.184;2022-07-30T15:59:13;28.20;1.00
46608;DHT22;32330;51.936;7.184;2022-07-30T16:01:39;28.20;1.10